sensor_id;sensor_type;location;lat;lon;timestamp;P1;durP1;ratioP1;P2;durP2;ratioP2
28007;SDS011;15333;50.010;20.020;2022-11-02T00:00:44;84.82;;;45.80;;
28007;SDS011;15333;50.010;20.020;2022-11-02T00:04:04;81.15;;;45.95;;
28007;SDS011;15333;50.010;20.020;2022-11-02T00:07:05;80.82;;;44.70;;
28007;SDS011;15333;50.010;20.020;2022-11-02T00:10:07;74.45;;;42.35;;
28007;SDS011;15333;50.010;20.020;2022-11-02T00:13:09;79.90;;;42.00;;
28007;SDS011;15333;50.010;20.020;2022-11-02T00:16:10;70.15;;;38.60;;
28007;SDS011;15333;50.010;20.020;2022-11-02T00:19:14;71.97;;;39.42;;
28007;SDS011;15333;50.010;20.020;2022-11-02T00:22:15;70.25;;;38.97;;
28007;SDS011;15333;50.010;20.020;2022-11-02T00:25:16;69.70;;;39.75;;
28007;SDS011;15333;50.010;20.020;2022-11-02T00:28:19;69.78;;;39.30;;
28007;SDS011;15333;50.010;20.020;2022-11-02T00:31:20;79.32;;;45.70;;
28007;SDS011;15333;50.010;20.020;2022-11-02T00:34:21;85.05;;;48.17;;
28007;SDS011;15333;50.010;20.020;2022-11-02T00:37:22;78.78;;;44.97;;
28007;SDS011;15333;50.010;20.020;2022-11-02T00:40:23;77.20;;;45.85;;
28007;SDS011;15333;50.010;20.020;2022-11-02T00:43:24;79.20;;;45.05;;
28007;SDS011;15333;50.010;20.020;2022-11-02T00:46:24;77.07;;;43.65;;
28007;SDS011;15333;50.010;20.020;2022-11-02T00:49:25;71.45;;;40.92;;
28007;SDS011;15333;50.010;20.020;2022-11-02T00:52:26;72.55;;;42.42;;
28007;SDS011;15333;50.010;20.020;2022-11-02T00:55:28;65.50;;;36.05;;
28007;SDS011;15333;50.010;20.020;2022-11-02T00:58:33;76.95;;;38.60;;
28007;SDS011;15333;50.010;20.020;2022-11-02T01:01:35;64.25;;;34.90;;
28007;SDS011;15333;50.010;20.020;2022-11-02T01:04:36;56.80;;;32.42;;
28007;SDS011;15333;50.010;20.020;2022-11-02T01:07:37;53.88;;;31.92;;
28007;SDS011;15333;50.010;20.020;2022-11-02T01:10:39;61.08;;;33.03;;
28007;SDS011;15333;50.010;20.020;2022-11-02T01:13:40;61.60;;;32.83;;
28007;SDS011;15333;50.010;20.020;2022-11-02T01:16:41;55.08;;;31.58;;
28007;SDS011;15333;50.010;20.020;2022-11-02T01:19:44;55.33;;;29.52;;
28007;SDS011;15333;50.010;20.020;2022-11-02T01:22:44;60.75;;;30.17;;
28007;SDS011;15333;50.010;20.020;2022-11-02T01:25:46;54.95;;;28.15;;
28007;SDS011;15333;50.010;20.020;2022-11-02T01:28:47;61.42;;;29.63;;
28007;SDS011;15333;50.010;20.020;2022-11-02T01:31:48;50.50;;;29.48;;
28007;SDS011;15333;50.010;20.020;2022-11-02T01:34:50;50.88;;;27.83;;
28007;SDS011;15333;50.010;20.020;2022-11-02T01:37:51;45.63;;;27.55;;
28007;SDS011;15333;50.010;20.020;2022-11-02T01:40:52;46.13;;;26.05;;
28007;SDS011;15333;50.010;20.020;2022-11-02T01:43:54;50.47;;;25.45;;
28007;SDS011;15333;50.010;20.020;2022-11-02T01:47:07;47.75;;;27.02;;
28007;SDS011;15333;50.010;20.020;2022-11-02T01:50:24;46.10;;;26.08;;
28007;SDS011;15333;50.010;20.020;2022-11-02T01:53:27;43.45;;;25.58;;
28007;SDS011;15333;50.010;20.020;2022-11-02T01:56:30;48.95;;;25.75;;
28007;SDS011;15333;50.010;20.020;2022-11-02T01:59:33;48.83;;;26.40;;
28007;SDS011;15333;50.010;20.020;2022-11-02T02:02:51;49.53;;;26.23;;
28007;SDS011;15333;50.010;20.020;2022-11-02T02:06:01;46.92;;;26.42;;
28007;SDS011;15333;50.010;20.020;2022-11-02T02:09:09;50.38;;;27.27;;
28007;SDS011;15333;50.010;20.020;2022-11-02T02:12:12;51.38;;;26.55;;
28007;SDS011;15333;50.010;20.020;2022-11-02T02:15:13;52.80;;;27.02;;
28007;SDS011;15333;50.010;20.020;2022-11-02T02:25:59;46.85;;;26.23;;
28007;SDS011;15333;50.010;20.020;2022-11-02T02:28:56;48.90;;;25.65;;
28007;SDS011;15333;50.010;20.020;2022-11-02T02:32:03;47.35;;;24.80;;
28007;SDS011;15333;50.010;20.020;2022-11-02T02:38:40;46.95;;;27.10;;
28007;SDS011;15333;50.010;20.020;2022-11-02T02:41:46;49.83;;;27.00;;
28007;SDS011;15333;50.010;20.020;2022-11-02T02:47:59;45.53;;;25.42;;
28007;SDS011;15333;50.010;20.020;2022-11-02T02:51:18;47.90;;;27.27;;
28007;SDS011;15333;50.010;20.020;2022-11-02T02:54:25;41.63;;;24.88;;
28007;SDS011;15333;50.010;20.020;2022-11-02T02:57:36;41.17;;;24.92;;
28007;SDS011;15333;50.010;20.020;2022-11-02T03:00:37;46.08;;;25.52;;
28007;SDS011;15333;50.010;20.020;2022-11-02T03:03:39;42.72;;;25.60;;
28007;SDS011;15333;50.010;20.020;2022-11-02T03:06:47;42.78;;;25.67;;
28007;SDS011;15333;50.010;20.020;2022-11-02T03:16:42;49.28;;;26.25;;
28007;SDS011;15333;50.010;20.020;2022-11-02T03:29:52;53.53;;;27.63;;
28007;SDS011;15333;50.010;20.020;2022-11-02T03:33:06;54.42;;;28.63;;
28007;SDS011;15333;50.010;20.020;2022-11-02T03:36:20;56.05;;;30.55;;
28007;SDS011;15333;50.010;20.020;2022-11-02T03:39:36;56.50;;;30.83;;
28007;SDS011;15333;50.010;20.020;2022-11-02T03:42:42;60.60;;;32.88;;
28007;SDS011;15333;50.010;20.020;2022-11-02T03:45:49;56.83;;;30.17;;
28007;SDS011;15333;50.010;20.020;2022-11-02T03:48:54;52.92;;;29.00;;
28007;SDS011;15333;50.010;20.020;2022-11-02T03:51:58;53.13;;;29.98;;
28007;SDS011;15333;50.010;20.020;2022-11-02T03:58:09;50.97;;;28.98;;
28007;SDS011;15333;50.010;20.020;2022-11-02T04:01:12;53.10;;;29.15;;
28007;SDS011;15333;50.010;20.020;2022-11-02T04:04:16;50.42;;;28.42;;
28007;SDS011;15333;50.010;20.020;2022-11-02T04:07:21;52.25;;;29.17;;
28007;SDS011;15333;50.010;20.020;2022-11-02T04:10:27;55.95;;;29.85;;
28007;SDS011;15333;50.010;20.020;2022-11-02T04:13:28;51.83;;;29.58;;
28007;SDS011;15333;50.010;20.020;2022-11-02T04:16:47;49.28;;;28.13;;
28007;SDS011;15333;50.010;20.020;2022-11-02T04:19:55;55.50;;;30.00;;
28007;SDS011;15333;50.010;20.020;2022-11-02T04:22:57;53.75;;;29.98;;
28007;SDS011;15333;50.010;20.020;2022-11-02T04:26:16;56.15;;;29.92;;
28007;SDS011;15333;50.010;20.020;2022-11-02T04:29:19;53.95;;;29.48;;
28007;SDS011;15333;50.010;20.020;2022-11-02T04:32:20;54.03;;;31.55;;
28007;SDS011;15333;50.010;20.020;2022-11-02T04:35:43;62.58;;;31.65;;
28007;SDS011;15333;50.010;20.020;2022-11-02T04:38:44;51.88;;;30.05;;
28007;SDS011;15333;50.010;20.020;2022-11-02T04:41:53;55.33;;;30.65;;
28007;SDS011;15333;50.010;20.020;2022-11-02T04:45:20;63.78;;;31.75;;
28007;SDS011;15333;50.010;20.020;2022-11-02T04:48:22;58.35;;;30.55;;
28007;SDS011;15333;50.010;20.020;2022-11-02T04:51:23;54.00;;;30.77;;
28007;SDS011;15333;50.010;20.020;2022-11-02T04:54:26;52.15;;;30.08;;
28007;SDS011;15333;50.010;20.020;2022-11-02T04:57:31;56.30;;;29.95;;
28007;SDS011;15333;50.010;20.020;2022-11-02T05:00:34;54.42;;;30.23;;
28007;SDS011;15333;50.010;20.020;2022-11-02T05:03:35;51.92;;;28.83;;
28007;SDS011;15333;50.010;20.020;2022-11-02T05:06:36;54.65;;;29.02;;
28007;SDS011;15333;50.010;20.020;2022-11-02T05:09:38;49.50;;;29.10;;
28007;SDS011;15333;50.010;20.020;2022-11-02T05:12:42;54.30;;;29.95;;
28007;SDS011;15333;50.010;20.020;2022-11-02T05:15:44;51.85;;;29.35;;
28007;SDS011;15333;50.010;20.020;2022-11-02T05:18:45;54.72;;;30.20;;
28007;SDS011;15333;50.010;20.020;2022-11-02T05:21:49;54.08;;;28.60;;
28007;SDS011;15333;50.010;20.020;2022-11-02T05:24:51;50.80;;;30.48;;
28007;SDS011;15333;50.010;20.020;2022-11-02T05:27:52;50.65;;;28.73;;
28007;SDS011;15333;50.010;20.020;2022-11-02T05:30:53;51.50;;;27.85;;
28007;SDS011;15333;50.010;20.020;2022-11-02T05:33:55;48.53;;;28.48;;
28007;SDS011;15333;50.010;20.020;2022-11-02T05:36:56;51.50;;;28.98;;
28007;SDS011;15333;50.010;20.020;2022-11-02T05:39:57;51.63;;;28.63;;
28007;SDS011;15333;50.010;20.020;2022-11-02T05:43:01;50.83;;;27.88;;
28007;SDS011;15333;50.010;20.020;2022-11-02T05:46:04;48.42;;;27.48;;
28007;SDS011;15333;50.010;20.020;2022-11-02T05:49:05;51.10;;;28.40;;
28007;SDS011;15333;50.010;20.020;2022-11-02T05:52:06;52.25;;;27.08;;
28007;SDS011;15333;50.010;20.020;2022-11-02T05:55:07;46.80;;;27.45;;
28007;SDS011;15333;50.010;20.020;2022-11-02T05:58:08;54.70;;;28.10;;
28007;SDS011;15333;50.010;20.020;2022-11-02T06:01:09;49.50;;;28.10;;
28007;SDS011;15333;50.010;20.020;2022-11-02T06:04:10;48.80;;;28.63;;
28007;SDS011;15333;50.010;20.020;2022-11-02T06:07:12;50.78;;;29.67;;
28007;SDS011;15333;50.010;20.020;2022-11-02T06:10:12;50.05;;;27.08;;
28007;SDS011;15333;50.010;20.020;2022-11-02T06:13:13;52.97;;;28.98;;
28007;SDS011;15333;50.010;20.020;2022-11-02T06:16:14;48.35;;;27.67;;
28007;SDS011;15333;50.010;20.020;2022-11-02T06:19:16;54.50;;;29.73;;
28007;SDS011;15333;50.010;20.020;2022-11-02T06:22:17;53.92;;;28.63;;
28007;SDS011;15333;50.010;20.020;2022-11-02T06:25:18;50.83;;;26.98;;
28007;SDS011;15333;50.010;20.020;2022-11-02T06:28:19;43.75;;;26.25;;
28007;SDS011;15333;50.010;20.020;2022-11-02T06:31:20;55.83;;;27.88;;
28007;SDS011;15333;50.010;20.020;2022-11-02T06:34:21;53.75;;;27.73;;
28007;SDS011;15333;50.010;20.020;2022-11-02T06:37:22;50.25;;;27.75;;
28007;SDS011;15333;50.010;20.020;2022-11-02T06:40:23;49.33;;;27.88;;
28007;SDS011;15333;50.010;20.020;2022-11-02T06:43:24;47.60;;;27.13;;
28007;SDS011;15333;50.010;20.020;2022-11-02T06:46:25;51.75;;;28.90;;
28007;SDS011;15333;50.010;20.020;2022-11-02T06:49:26;53.15;;;27.73;;
28007;SDS011;15333;50.010;20.020;2022-11-02T06:52:27;51.00;;;27.25;;
28007;SDS011;15333;50.010;20.020;2022-11-02T06:55:28;50.13;;;27.70;;
28007;SDS011;15333;50.010;20.020;2022-11-02T06:58:29;51.30;;;27.58;;
28007;SDS011;15333;50.010;20.020;2022-11-02T07:01:30;53.30;;;29.00;;
28007;SDS011;15333;50.010;20.020;2022-11-02T07:04:31;53.60;;;28.65;;
28007;SDS011;15333;50.010;20.020;2022-11-02T07:07:32;51.72;;;30.20;;
28007;SDS011;15333;50.010;20.020;2022-11-02T07:10:32;52.53;;;28.98;;
28007;SDS011;15333;50.010;20.020;2022-11-02T07:13:35;48.75;;;27.10;;
28007;SDS011;15333;50.010;20.020;2022-11-02T07:16:35;51.92;;;29.02;;
28007;SDS011;15333;50.010;20.020;2022-11-02T07:19:36;55.65;;;28.35;;
28007;SDS011;15333;50.010;20.020;2022-11-02T07:22:37;55.70;;;29.08;;
28007;SDS011;15333;50.010;20.020;2022-11-02T07:25:38;47.35;;;27.90;;
28007;SDS011;15333;50.010;20.020;2022-11-02T07:28:39;52.63;;;30.27;;
28007;SDS011;15333;50.010;20.020;2022-11-02T07:31:40;53.28;;;29.67;;
28007;SDS011;15333;50.010;20.020;2022-11-02T07:34:41;55.10;;;29.42;;
28007;SDS011;15333;50.010;20.020;2022-11-02T07:37:42;54.47;;;30.83;;
28007;SDS011;15333;50.010;20.020;2022-11-02T07:40:43;56.38;;;29.90;;
28007;SDS011;15333;50.010;20.020;2022-11-02T07:43:48;54.85;;;29.60;;
28007;SDS011;15333;50.010;20.020;2022-11-02T07:46:58;64.75;;;32.60;;
28007;SDS011;15333;50.010;20.020;2022-11-02T07:50:00;53.58;;;29.23;;
28007;SDS011;15333;50.010;20.020;2022-11-02T07:53:01;57.70;;;31.77;;
28007;SDS011;15333;50.010;20.020;2022-11-02T07:56:03;57.60;;;31.15;;
28007;SDS011;15333;50.010;20.020;2022-11-02T07:59:04;55.63;;;29.92;;
28007;SDS011;15333;50.010;20.020;2022-11-02T08:02:05;54.78;;;32.50;;
28007;SDS011;15333;50.010;20.020;2022-11-02T08:05:05;53.95;;;30.33;;
28007;SDS011;15333;50.010;20.020;2022-11-02T08:08:09;51.97;;;28.65;;
28007;SDS011;15333;50.010;20.020;2022-11-02T08:11:15;49.72;;;29.75;;
28007;SDS011;15333;50.010;20.020;2022-11-02T08:14:16;49.95;;;27.92;;
28007;SDS011;15333;50.010;20.020;2022-11-02T08:17:17;56.35;;;30.42;;
28007;SDS011;15333;50.010;20.020;2022-11-02T08:20:18;48.72;;;28.65;;
28007;SDS011;15333;50.010;20.020;2022-11-02T08:23:19;56.85;;;30.35;;
28007;SDS011;15333;50.010;20.020;2022-11-02T08:26:20;52.40;;;27.83;;
28007;SDS011;15333;50.010;20.020;2022-11-02T08:29:21;53.05;;;30.02;;
28007;SDS011;15333;50.010;20.020;2022-11-02T08:32:22;55.45;;;30.10;;
28007;SDS011;15333;50.010;20.020;2022-11-02T08:35:23;48.85;;;29.65;;
28007;SDS011;15333;50.010;20.020;2022-11-02T08:38:24;49.80;;;27.63;;
28007;SDS011;15333;50.010;20.020;2022-11-02T08:41:24;49.22;;;26.65;;
28007;SDS011;15333;50.010;20.020;2022-11-02T08:44:25;46.47;;;26.20;;
28007;SDS011;15333;50.010;20.020;2022-11-02T08:47:26;48.92;;;26.73;;
28007;SDS011;15333;50.010;20.020;2022-11-02T08:50:27;47.15;;;25.15;;
28007;SDS011;15333;50.010;20.020;2022-11-02T08:53:28;48.40;;;25.77;;
28007;SDS011;15333;50.010;20.020;2022-11-02T08:56:29;46.00;;;26.25;;
28007;SDS011;15333;50.010;20.020;2022-11-02T08:59:30;44.63;;;26.60;;
28007;SDS011;15333;50.010;20.020;2022-11-02T09:02:31;44.55;;;25.35;;
28007;SDS011;15333;50.010;20.020;2022-11-02T09:05:35;43.20;;;25.92;;
28007;SDS011;15333;50.010;20.020;2022-11-02T09:08:39;43.75;;;24.00;;
28007;SDS011;15333;50.010;20.020;2022-11-02T09:11:39;38.85;;;22.52;;
28007;SDS011;15333;50.010;20.020;2022-11-02T09:14:40;44.92;;;24.13;;
28007;SDS011;15333;50.010;20.020;2022-11-02T09:17:41;41.83;;;24.13;;
28007;SDS011;15333;50.010;20.020;2022-11-02T09:20:42;38.28;;;22.73;;
28007;SDS011;15333;50.010;20.020;2022-11-02T09:23:43;34.97;;;20.80;;
28007;SDS011;15333;50.010;20.020;2022-11-02T09:26:47;38.88;;;21.20;;
28007;SDS011;15333;50.010;20.020;2022-11-02T09:29:48;33.30;;;21.08;;
28007;SDS011;15333;50.010;20.020;2022-11-02T09:32:59;35.70;;;19.73;;
28007;SDS011;15333;50.010;20.020;2022-11-02T09:36:03;41.17;;;20.27;;
28007;SDS011;15333;50.010;20.020;2022-11-02T09:39:05;31.85;;;17.50;;
28007;SDS011;15333;50.010;20.020;2022-11-02T09:42:08;29.80;;;18.65;;
28007;SDS011;15333;50.010;20.020;2022-11-02T09:45:17;33.28;;;19.15;;
28007;SDS011;15333;50.010;20.020;2022-11-02T09:48:27;31.92;;;18.23;;
28007;SDS011;15333;50.010;20.020;2022-11-02T09:51:35;33.78;;;17.98;;
28007;SDS011;15333;50.010;20.020;2022-11-02T09:54:40;34.45;;;17.27;;
28007;SDS011;15333;50.010;20.020;2022-11-02T09:57:45;27.77;;;15.80;;
28007;SDS011;15333;50.010;20.020;2022-11-02T10:00:50;28.70;;;17.25;;
28007;SDS011;15333;50.010;20.020;2022-11-02T10:04:05;32.72;;;14.73;;
28007;SDS011;15333;50.010;20.020;2022-11-02T10:14:39;24.23;;;12.93;;
28007;SDS011;15333;50.010;20.020;2022-11-02T10:17:52;20.35;;;10.77;;
28007;SDS011;15333;50.010;20.020;2022-11-02T10:20:57;23.70;;;11.13;;
28007;SDS011;15333;50.010;20.020;2022-11-02T10:24:08;17.10;;;10.77;;
28007;SDS011;15333;50.010;20.020;2022-11-02T10:27:23;19.48;;;10.13;;
28007;SDS011;15333;50.010;20.020;2022-11-02T10:30:26;17.23;;;10.48;;
28007;SDS011;15333;50.010;20.020;2022-11-02T10:33:28;21.58;;;10.77;;
28007;SDS011;15333;50.010;20.020;2022-11-02T10:46:37;16.90;;;10.02;;
28007;SDS011;15333;50.010;20.020;2022-11-02T10:52:44;21.95;;;11.07;;
28007;SDS011;15333;50.010;20.020;2022-11-02T10:55:58;20.85;;;10.63;;
28007;SDS011;15333;50.010;20.020;2022-11-02T11:02:18;14.77;;;8.20;;
28007;SDS011;15333;50.010;20.020;2022-11-02T11:05:18;15.50;;;7.85;;
28007;SDS011;15333;50.010;20.020;2022-11-02T11:11:36;14.35;;;8.32;;
28007;SDS011;15333;50.010;20.020;2022-11-02T11:14:43;17.33;;;8.43;;
28007;SDS011;15333;50.010;20.020;2022-11-02T11:17:46;12.85;;;7.30;;
28007;SDS011;15333;50.010;20.020;2022-11-02T11:20:47;18.40;;;7.97;;
28007;SDS011;15333;50.010;20.020;2022-11-02T11:24:00;16.83;;;8.25;;
28007;SDS011;15333;50.010;20.020;2022-11-02T11:27:22;12.98;;;8.20;;
28007;SDS011;15333;50.010;20.020;2022-11-02T11:30:30;11.63;;;7.95;;
28007;SDS011;15333;50.010;20.020;2022-11-02T11:33:40;18.77;;;7.95;;
28007;SDS011;15333;50.010;20.020;2022-11-02T11:36:42;13.63;;;7.57;;
28007;SDS011;15333;50.010;20.020;2022-11-02T11:39:44;17.05;;;6.50;;
28007;SDS011;15333;50.010;20.020;2022-11-02T11:42:51;11.05;;;6.03;;
28007;SDS011;15333;50.010;20.020;2022-11-02T11:46:01;11.70;;;5.85;;
28007;SDS011;15333;50.010;20.020;2022-11-02T11:49:04;11.55;;;6.25;;
28007;SDS011;15333;50.010;20.020;2022-11-02T11:52:05;14.80;;;6.05;;
28007;SDS011;15333;50.010;20.020;2022-11-02T11:55:22;17.40;;;6.17;;
28007;SDS011;15333;50.010;20.020;2022-11-02T11:58:26;8.55;;;5.25;;
28007;SDS011;15333;50.010;20.020;2022-11-02T12:01:28;10.93;;;6.90;;
28007;SDS011;15333;50.010;20.020;2022-11-02T12:04:38;12.45;;;5.70;;
28007;SDS011;15333;50.010;20.020;2022-11-02T12:11:03;18.58;;;6.15;;
28007;SDS011;15333;50.010;20.020;2022-11-02T12:27:14;9.93;;;4.57;;
28007;SDS011;15333;50.010;20.020;2022-11-02T12:33:51;13.57;;;5.85;;
28007;SDS011;15333;50.010;20.020;2022-11-02T12:43:57;11.00;;;5.15;;
28007;SDS011;15333;50.010;20.020;2022-11-02T12:56:50;9.32;;;4.85;;
28007;SDS011;15333;50.010;20.020;2022-11-02T12:59:54;10.52;;;5.40;;
28007;SDS011;15333;50.010;20.020;2022-11-02T13:06:09;10.73;;;5.60;;
28007;SDS011;15333;50.010;20.020;2022-11-02T13:12:18;9.88;;;5.30;;
28007;SDS011;15333;50.010;20.020;2022-11-02T13:15:23;10.52;;;5.47;;
28007;SDS011;15333;50.010;20.020;2022-11-02T13:18:40;12.43;;;5.43;;
28007;SDS011;15333;50.010;20.020;2022-11-02T13:21:48;12.45;;;6.18;;
28007;SDS011;15333;50.010;20.020;2022-11-02T13:24:55;10.50;;;6.50;;
28007;SDS011;15333;50.010;20.020;2022-11-02T13:28:09;11.90;;;5.85;;
28007;SDS011;15333;50.010;20.020;2022-11-02T13:31:16;12.82;;;6.38;;
28007;SDS011;15333;50.010;20.020;2022-11-02T13:34:28;11.90;;;6.35;;
28007;SDS011;15333;50.010;20.020;2022-11-02T13:37:34;11.10;;;6.35;;
28007;SDS011;15333;50.010;20.020;2022-11-02T13:40:45;13.38;;;5.45;;
28007;SDS011;15333;50.010;20.020;2022-11-02T13:50:17;10.43;;;6.13;;
28007;SDS011;15333;50.010;20.020;2022-11-02T13:53:22;11.50;;;5.95;;
28007;SDS011;15333;50.010;20.020;2022-11-02T13:56:34;9.75;;;5.30;;
28007;SDS011;15333;50.010;20.020;2022-11-02T13:59:37;9.35;;;5.43;;
28007;SDS011;15333;50.010;20.020;2022-11-02T14:02:39;11.38;;;6.20;;
28007;SDS011;15333;50.010;20.020;2022-11-02T14:05:49;9.48;;;6.18;;
28007;SDS011;15333;50.010;20.020;2022-11-02T14:08:55;11.93;;;6.68;;
28007;SDS011;15333;50.010;20.020;2022-11-02T14:15:40;13.07;;;5.90;;
28007;SDS011;15333;50.010;20.020;2022-11-02T14:18:42;11.68;;;7.50;;
28007;SDS011;15333;50.010;20.020;2022-11-02T14:21:44;13.57;;;8.07;;
28007;SDS011;15333;50.010;20.020;2022-11-02T14:24:52;18.23;;;8.88;;
28007;SDS011;15333;50.010;20.020;2022-11-02T14:27:53;15.38;;;7.63;;
28007;SDS011;15333;50.010;20.020;2022-11-02T14:34:10;16.27;;;7.53;;
28007;SDS011;15333;50.010;20.020;2022-11-02T14:44:41;15.90;;;9.75;;
28007;SDS011;15333;50.010;20.020;2022-11-02T14:48:01;15.48;;;9.45;;
28007;SDS011;15333;50.010;20.020;2022-11-02T14:51:06;17.95;;;10.25;;
28007;SDS011;15333;50.010;20.020;2022-11-02T14:54:16;21.92;;;9.90;;
28007;SDS011;15333;50.010;20.020;2022-11-02T14:57:22;18.77;;;9.60;;
28007;SDS011;15333;50.010;20.020;2022-11-02T15:00:36;13.38;;;9.15;;
28007;SDS011;15333;50.010;20.020;2022-11-02T15:03:53;18.67;;;9.25;;
28007;SDS011;15333;50.010;20.020;2022-11-02T15:06:55;17.40;;;9.80;;
28007;SDS011;15333;50.010;20.020;2022-11-02T15:10:00;16.50;;;9.27;;
28007;SDS011;15333;50.010;20.020;2022-11-02T15:16:22;18.83;;;9.85;;
28007;SDS011;15333;50.010;20.020;2022-11-02T15:19:34;16.73;;;9.50;;
28007;SDS011;15333;50.010;20.020;2022-11-02T15:22:50;18.17;;;8.95;;
28007;SDS011;15333;50.010;20.020;2022-11-02T15:26:15;15.75;;;8.85;;
28007;SDS011;15333;50.010;20.020;2022-11-02T15:32:27;15.95;;;9.38;;
28007;SDS011;15333;50.010;20.020;2022-11-02T15:35:34;17.67;;;9.00;;
28007;SDS011;15333;50.010;20.020;2022-11-02T15:38:36;16.50;;;8.93;;
28007;SDS011;15333;50.010;20.020;2022-11-02T15:51:29;16.92;;;9.30;;
28007;SDS011;15333;50.010;20.020;2022-11-02T15:57:56;19.17;;;10.73;;
28007;SDS011;15333;50.010;20.020;2022-11-02T16:01:20;18.88;;;10.43;;
28007;SDS011;15333;50.010;20.020;2022-11-02T16:04:23;17.05;;;10.82;;
28007;SDS011;15333;50.010;20.020;2022-11-02T16:07:24;20.67;;;10.13;;
28007;SDS011;15333;50.010;20.020;2022-11-02T16:10:27;19.60;;;10.80;;
28007;SDS011;15333;50.010;20.020;2022-11-02T16:13:32;19.70;;;11.07;;
28007;SDS011;15333;50.010;20.020;2022-11-02T16:16:44;21.45;;;10.82;;
28007;SDS011;15333;50.010;20.020;2022-11-02T16:19:49;22.15;;;11.32;;
28007;SDS011;15333;50.010;20.020;2022-11-02T16:26:03;24.73;;;12.50;;
28007;SDS011;15333;50.010;20.020;2022-11-02T16:29:08;21.25;;;12.95;;
28007;SDS011;15333;50.010;20.020;2022-11-02T16:32:10;24.45;;;12.90;;
28007;SDS011;15333;50.010;20.020;2022-11-02T16:35:12;26.33;;;13.73;;
28007;SDS011;15333;50.010;20.020;2022-11-02T16:38:16;27.15;;;13.55;;
28007;SDS011;15333;50.010;20.020;2022-11-02T16:41:18;25.75;;;13.30;;
28007;SDS011;15333;50.010;20.020;2022-11-02T16:44:29;27.98;;;13.45;;
28007;SDS011;15333;50.010;20.020;2022-11-02T16:47:38;30.92;;;13.88;;
28007;SDS011;15333;50.010;20.020;2022-11-02T16:50:49;25.20;;;12.85;;
28007;SDS011;15333;50.010;20.020;2022-11-02T16:54:16;22.55;;;13.38;;
28007;SDS011;15333;50.010;20.020;2022-11-02T16:57:26;25.92;;;13.70;;
28007;SDS011;15333;50.010;20.020;2022-11-02T17:00:30;27.85;;;13.90;;
28007;SDS011;15333;50.010;20.020;2022-11-02T17:03:32;30.17;;;13.63;;
28007;SDS011;15333;50.010;20.020;2022-11-02T17:06:38;27.48;;;13.45;;
28007;SDS011;15333;50.010;20.020;2022-11-02T17:09:43;30.02;;;14.27;;
28007;SDS011;15333;50.010;20.020;2022-11-02T17:12:52;29.77;;;14.82;;
28007;SDS011;15333;50.010;20.020;2022-11-02T17:15:54;29.00;;;14.52;;
28007;SDS011;15333;50.010;20.020;2022-11-02T17:19:02;32.05;;;14.57;;
28007;SDS011;15333;50.010;20.020;2022-11-02T17:22:37;31.58;;;15.05;;
28007;SDS011;15333;50.010;20.020;2022-11-02T17:25:35;30.65;;;15.88;;
28007;SDS011;15333;50.010;20.020;2022-11-02T17:31:42;26.65;;;15.73;;
28007;SDS011;15333;50.010;20.020;2022-11-02T17:34:50;29.30;;;15.95;;
28007;SDS011;15333;50.010;20.020;2022-11-02T17:37:52;32.47;;;16.42;;
28007;SDS011;15333;50.010;20.020;2022-11-02T17:40:54;35.05;;;16.80;;
28007;SDS011;15333;50.010;20.020;2022-11-02T17:43:55;37.55;;;16.83;;
28007;SDS011;15333;50.010;20.020;2022-11-02T17:46:56;28.00;;;16.55;;
28007;SDS011;15333;50.010;20.020;2022-11-02T17:49:56;34.15;;;17.35;;
28007;SDS011;15333;50.010;20.020;2022-11-02T17:52:58;32.00;;;17.15;;
28007;SDS011;15333;50.010;20.020;2022-11-02T17:56:00;30.63;;;17.60;;
28007;SDS011;15333;50.010;20.020;2022-11-02T17:59:01;38.55;;;18.27;;
28007;SDS011;15333;50.010;20.020;2022-11-02T18:02:01;32.50;;;17.55;;
28007;SDS011;15333;50.010;20.020;2022-11-02T18:05:02;34.03;;;18.35;;
28007;SDS011;15333;50.010;20.020;2022-11-02T18:08:04;34.03;;;18.35;;
28007;SDS011;15333;50.010;20.020;2022-11-02T18:11:07;42.55;;;20.02;;
28007;SDS011;15333;50.010;20.020;2022-11-02T18:14:11;38.22;;;20.25;;
28007;SDS011;15333;50.010;20.020;2022-11-02T18:17:13;37.22;;;20.38;;
28007;SDS011;15333;50.010;20.020;2022-11-02T18:20:14;36.50;;;20.52;;
28007;SDS011;15333;50.010;20.020;2022-11-02T18:23:16;35.88;;;20.95;;
28007;SDS011;15333;50.010;20.020;2022-11-02T18:26:18;44.63;;;20.90;;
28007;SDS011;15333;50.010;20.020;2022-11-02T18:29:19;37.47;;;21.35;;
28007;SDS011;15333;50.010;20.020;2022-11-02T18:32:20;36.72;;;21.60;;
28007;SDS011;15333;50.010;20.020;2022-11-02T18:35:22;39.85;;;21.58;;
28007;SDS011;15333;50.010;20.020;2022-11-02T18:38:23;41.17;;;22.60;;
28007;SDS011;15333;50.010;20.020;2022-11-02T18:41:24;44.72;;;23.48;;
28007;SDS011;15333;50.010;20.020;2022-11-02T18:44:32;42.45;;;24.05;;
28007;SDS011;15333;50.010;20.020;2022-11-02T18:47:33;39.72;;;22.92;;
28007;SDS011;15333;50.010;20.020;2022-11-02T18:50:34;40.80;;;22.95;;
28007;SDS011;15333;50.010;20.020;2022-11-02T18:53:36;44.05;;;24.15;;
28007;SDS011;15333;50.010;20.020;2022-11-02T18:56:37;44.47;;;23.35;;
28007;SDS011;15333;50.010;20.020;2022-11-02T18:59:38;40.53;;;23.90;;
28007;SDS011;15333;50.010;20.020;2022-11-02T19:02:38;48.05;;;24.65;;
28007;SDS011;15333;50.010;20.020;2022-11-02T19:05:40;46.45;;;24.80;;
28007;SDS011;15333;50.010;20.020;2022-11-02T19:09:00;43.55;;;23.27;;
28007;SDS011;15333;50.010;20.020;2022-11-02T19:12:23;41.45;;;22.85;;
28007;SDS011;15333;50.010;20.020;2022-11-02T19:15:26;41.40;;;22.95;;
28007;SDS011;15333;50.010;20.020;2022-11-02T19:18:27;38.58;;;22.20;;
28007;SDS011;15333;50.010;20.020;2022-11-02T19:21:28;41.22;;;22.58;;
28007;SDS011;15333;50.010;20.020;2022-11-02T19:24:29;41.05;;;21.90;;
28007;SDS011;15333;50.010;20.020;2022-11-02T19:27:30;39.08;;;20.85;;
28007;SDS011;15333;50.010;20.020;2022-11-02T19:30:31;41.10;;;22.58;;
28007;SDS011;15333;50.010;20.020;2022-11-02T19:33:32;40.72;;;22.38;;
28007;SDS011;15333;50.010;20.020;2022-11-02T19:36:33;36.90;;;20.88;;
28007;SDS011;15333;50.010;20.020;2022-11-02T19:39:34;41.60;;;20.95;;
28007;SDS011;15333;50.010;20.020;2022-11-02T19:42:36;43.00;;;20.98;;
28007;SDS011;15333;50.010;20.020;2022-11-02T19:45:36;40.20;;;21.83;;
28007;SDS011;15333;50.010;20.020;2022-11-02T19:48:38;39.75;;;21.55;;
28007;SDS011;15333;50.010;20.020;2022-11-02T19:51:39;38.65;;;21.02;;
28007;SDS011;15333;50.010;20.020;2022-11-02T19:54:40;39.05;;;21.05;;
28007;SDS011;15333;50.010;20.020;2022-11-02T19:57:40;40.67;;;21.92;;
28007;SDS011;15333;50.010;20.020;2022-11-02T20:00:41;38.97;;;21.08;;
28007;SDS011;15333;50.010;20.020;2022-11-02T20:03:42;47.53;;;23.00;;
28007;SDS011;15333;50.010;20.020;2022-11-02T20:06:46;38.33;;;21.23;;
28007;SDS011;15333;50.010;20.020;2022-11-02T20:09:46;38.00;;;20.35;;
28007;SDS011;15333;50.010;20.020;2022-11-02T20:12:48;36.95;;;20.55;;
28007;SDS011;15333;50.010;20.020;2022-11-02T20:15:48;38.85;;;20.60;;